Flugplatz Salzgitter-Schäferstuhl

Für EDVJ sind keine METAR/TAF Berichte vorhanden.
Es werden die Flugwettermeldungen vom Flugplatz Braunschweig Wolfsburg in 34 km Entfernung angezeigt.

Bericht für EDVE

vom 17.09. um 13:20 UTC

Wind 18 kt aus 290° in Böen 28 kt

Sichtweite 10 km oder mehr

aufgelockert bewölkt in 3900 ft

Temperatur 15.0°C

Taupunkt 8.0°C

Luftfeuchtigkeit 63%

Luftdruck 1015 hPa

EDVE 171320Z 29018G28KT 9999 SCT039 15/08 Q1015

Prognose für EDVE

vom 17.09. um 00:00 UTC

Zwischen 00:00 UTC und 00:00 UTC

Wind 15 kt aus 290° in Böen 25 kt

Sichtweite 10 km oder mehr

aufgelockert bewölkt in 4000 ft


Zwischen 00:00 UTC und 00:00 UTC zeitweise

Wind 20 kt aus 290° in Böen 35 kt


Zwischen 00:00 und 00:00 UTC übergehend zu

Wind 11 kt aus 290°

Sichtweite 10 km oder mehr

aufgelockert bewölkt in 4000 ft

TAF EDVE 171100Z 1712/1721 29015G25KT 9999 SCT040 TEMPO 1712/1717 29020G35KT BECMG 1716/1719 29011KT
Impressum